sensor_id;sensor_type;location;lat;lon;timestamp;temperature;humidity
40289;DHT22;28991;52.028;5.526;2023-11-19T00:00:26;17.70;55.50
40289;DHT22;28991;52.028;5.526;2023-11-19T00:02:52;17.60;55.50
40289;DHT22;28991;52.028;5.526;2023-11-19T00:05:18;17.70;55.50
40289;DHT22;28991;52.028;5.526;2023-11-19T00:07:43;17.70;55.50
40289;DHT22;28991;52.028;5.526;2023-11-19T00:10:11;17.70;55.60
40289;DHT22;28991;52.028;5.526;2023-11-19T00:12:42;17.70;55.60
40289;DHT22;28991;52.028;5.526;2023-11-19T00:15:07;17.60;55.50
40289;DHT22;28991;52.028;5.526;2023-11-19T00:17:40;17.70;55.60
40289;DHT22;28991;52.028;5.526;2023-11-19T00:20:08;17.60;55.50
40289;DHT22;28991;52.028;5.526;2023-11-19T00:22:33;17.60;55.60
40289;DHT22;28991;52.028;5.526;2023-11-19T00:24:59;17.70;55.60
40289;DHT22;28991;52.028;5.526;2023-11-19T00:27:25;17.70;55.70
40289;DHT22;28991;52.028;5.526;2023-11-19T00:29:51;17.60;55.60
40289;DHT22;28991;52.028;5.526;2023-11-19T00:32:16;17.50;55.60
40289;DHT22;28991;52.028;5.526;2023-11-19T00:34:45;18.10;55.90
40289;DHT22;28991;52.028;5.526;2023-11-19T00:37:13;17.60;55.60
40289;DHT22;28991;52.028;5.526;2023-11-19T00:39:39;17.60;55.60
40289;DHT22;28991;52.028;5.526;2023-11-19T00:42:04;17.60;55.70
40289;DHT22;28991;52.028;5.526;2023-11-19T00:44:30;17.60;55.70
40289;DHT22;28991;52.028;5.526;2023-11-19T00:46:56;17.60;55.70
40289;DHT22;28991;52.028;5.526;2023-11-19T00:49:21;17.70;55.80
40289;DHT22;28991;52.028;5.526;2023-11-19T00:51:47;17.70;55.80
40289;DHT22;28991;52.028;5.526;2023-11-19T00:54:13;17.60;55.70
40289;DHT22;28991;52.028;5.526;2023-11-19T00:56:38;17.60;55.80
40289;DHT22;28991;52.028;5.526;2023-11-19T00:59:05;17.80;56.40
40289;DHT22;28991;52.028;5.526;2023-11-19T01:01:30;17.60;55.80
40289;DHT22;28991;52.028;5.526;2023-11-19T01:03:56;17.60;55.80
40289;DHT22;28991;52.028;5.526;2023-11-19T01:06:28;17.70;55.80
40289;DHT22;28991;52.028;5.526;2023-11-19T01:08:54;17.70;55.90
40289;DHT22;28991;52.028;5.526;2023-11-19T01:11:22;17.60;55.80
40289;DHT22;28991;52.028;5.526;2023-11-19T01:13:48;17.50;55.70
40289;DHT22;28991;52.028;5.526;2023-11-19T01:16:14;17.60;55.90
40289;DHT22;28991;52.028;5.526;2023-11-19T01:18:39;17.60;55.90
40289;DHT22;28991;52.028;5.526;2023-11-19T01:21:05;17.60;55.90
40289;DHT22;28991;52.028;5.526;2023-11-19T01:23:31;17.60;55.90
40289;DHT22;28991;52.028;5.526;2023-11-19T01:25:58;17.50;55.80
40289;DHT22;28991;52.028;5.526;2023-11-19T01:28:23;17.60;55.90
40289;DHT22;28991;52.028;5.526;2023-11-19T01:30:52;17.60;55.90
40289;DHT22;28991;52.028;5.526;2023-11-19T01:33:18;18.40;56.30
40289;DHT22;28991;52.028;5.526;2023-11-19T01:35:44;17.80;56.10
40289;DHT22;28991;52.028;5.526;2023-11-19T01:38:09;17.70;56.00
40289;DHT22;28991;52.028;5.526;2023-11-19T01:40:36;18.10;56.20
40289;DHT22;28991;52.028;5.526;2023-11-19T01:43:02;17.40;55.80
40289;DHT22;28991;52.028;5.526;2023-11-19T01:45:29;17.60;56.00
40289;DHT22;28991;52.028;5.526;2023-11-19T01:47:56;17.60;56.00
40289;DHT22;28991;52.028;5.526;2023-11-19T01:50:25;17.60;56.00
40289;DHT22;28991;52.028;5.526;2023-11-19T01:52:54;17.60;56.00
40289;DHT22;28991;52.028;5.526;2023-11-19T01:55:24;17.50;56.00
40289;DHT22;28991;52.028;5.526;2023-11-19T01:57:49;17.60;56.10
40289;DHT22;28991;52.028;5.526;2023-11-19T02:00:16;17.60;56.00
40289;DHT22;28991;52.028;5.526;2023-11-19T02:02:45;17.50;56.00
40289;DHT22;28991;52.028;5.526;2023-11-19T02:05:12;17.60;56.10
40289;DHT22;28991;52.028;5.526;2023-11-19T02:07:38;17.60;56.10
40289;DHT22;28991;52.028;5.526;2023-11-19T02:10:05;17.60;56.10
40289;DHT22;28991;52.028;5.526;2023-11-19T02:12:31;17.60;56.10
40289;DHT22;28991;52.028;5.526;2023-11-19T02:14:59;17.80;56.20
40289;DHT22;28991;52.028;5.526;2023-11-19T02:17:29;17.50;56.00
40289;DHT22;28991;52.028;5.526;2023-11-19T02:19:57;17.60;56.20
40289;DHT22;28991;52.028;5.526;2023-11-19T02:22:23;17.60;56.20
40289;DHT22;28991;52.028;5.526;2023-11-19T02:24:54;17.60;56.20
40289;DHT22;28991;52.028;5.526;2023-11-19T02:30:06;17.60;56.20
40289;DHT22;28991;52.028;5.526;2023-11-19T02:32:34;17.50;56.10
40289;DHT22;28991;52.028;5.526;2023-11-19T02:34:59;17.70;56.30
40289;DHT22;28991;52.028;5.526;2023-11-19T02:37:25;17.40;56.10
40289;DHT22;28991;52.028;5.526;2023-11-19T02:39:51;17.60;56.30
40289;DHT22;28991;52.028;5.526;2023-11-19T02:42:16;17.60;56.30
40289;DHT22;28991;52.028;5.526;2023-11-19T02:44:45;17.50;56.20
40289;DHT22;28991;52.028;5.526;2023-11-19T02:47:11;17.60;56.30
40289;DHT22;28991;52.028;5.526;2023-11-19T02:49:37;17.60;56.30
40289;DHT22;28991;52.028;5.526;2023-11-19T02:52:03;17.60;56.30
40289;DHT22;28991;52.028;5.526;2023-11-19T02:54:31;17.60;56.30
40289;DHT22;28991;52.028;5.526;2023-11-19T02:57:00;18.20;56.60
40289;DHT22;28991;52.028;5.526;2023-11-19T02:59:27;18.20;56.60
40289;DHT22;28991;52.028;5.526;2023-11-19T03:01:54;17.50;56.30
40289;DHT22;28991;52.028;5.526;2023-11-19T03:04:20;17.60;56.40
40289;DHT22;28991;52.028;5.526;2023-11-19T03:06:46;17.50;56.30
40289;DHT22;28991;52.028;5.526;2023-11-19T03:09:12;17.60;56.40
40289;DHT22;28991;52.028;5.526;2023-11-19T03:11:37;17.50;56.30
40289;DHT22;28991;52.028;5.526;2023-11-19T03:14:03;17.50;56.30
40289;DHT22;28991;52.028;5.526;2023-11-19T03:16:29;17.50;56.30
40289;DHT22;28991;52.028;5.526;2023-11-19T03:18:55;17.50;56.30
40289;DHT22;28991;52.028;5.526;2023-11-19T03:21:30;17.60;56.50
40289;DHT22;28991;52.028;5.526;2023-11-19T03:23:57;17.50;56.40
40289;DHT22;28991;52.028;5.526;2023-11-19T03:26:26;17.50;56.40
40289;DHT22;28991;52.028;5.526;2023-11-19T03:28:52;17.50;56.40
40289;DHT22;28991;52.028;5.526;2023-11-19T03:31:17;17.80;56.60
40289;DHT22;28991;52.028;5.526;2023-11-19T03:33:43;17.50;56.40
40289;DHT22;28991;52.028;5.526;2023-11-19T03:36:09;17.40;56.40
40289;DHT22;28991;52.028;5.526;2023-11-19T03:38:34;18.10;56.80
40289;DHT22;28991;52.028;5.526;2023-11-19T03:41:00;17.50;56.50
40289;DHT22;28991;52.028;5.526;2023-11-19T03:43:26;17.60;56.60
40289;DHT22;28991;52.028;5.526;2023-11-19T03:45:52;17.50;56.50
40289;DHT22;28991;52.028;5.526;2023-11-19T03:48:18;17.50;56.50
40289;DHT22;28991;52.028;5.526;2023-11-19T03:50:44;17.50;56.50
40289;DHT22;28991;52.028;5.526;2023-11-19T03:53:10;17.50;56.50
40289;DHT22;28991;52.028;5.526;2023-11-19T03:55:36;17.40;56.50
40289;DHT22;28991;52.028;5.526;2023-11-19T03:58:02;17.60;56.60
40289;DHT22;28991;52.028;5.526;2023-11-19T04:00:27;17.50;56.50
40289;DHT22;28991;52.028;5.526;2023-11-19T04:02:53;17.00;56.30
40289;DHT22;28991;52.028;5.526;2023-11-19T04:05:18;17.50;56.60
40289;DHT22;28991;52.028;5.526;2023-11-19T04:07:44;17.50;56.60
40289;DHT22;28991;52.028;5.526;2023-11-19T04:10:10;17.50;56.60
40289;DHT22;28991;52.028;5.526;2023-11-19T04:12:35;17.50;57.20
40289;DHT22;28991;52.028;5.526;2023-11-19T04:15:01;17.50;56.70
40289;DHT22;28991;52.028;5.526;2023-11-19T04:17:26;17.50;56.70
40289;DHT22;28991;52.028;5.526;2023-11-19T04:19:52;17.50;56.60
40289;DHT22;28991;52.028;5.526;2023-11-19T04:22:18;17.60;56.80
40289;DHT22;28991;52.028;5.526;2023-11-19T04:24:43;17.50;56.70
40289;DHT22;28991;52.028;5.526;2023-11-19T04:27:10;17.50;56.70
40289;DHT22;28991;52.028;5.526;2023-11-19T04:29:36;17.50;56.70
40289;DHT22;28991;52.028;5.526;2023-11-19T04:32:02;17.60;56.80
40289;DHT22;28991;52.028;5.526;2023-11-19T04:34:27;17.50;56.70
40289;DHT22;28991;52.028;5.526;2023-11-19T04:36:53;17.60;56.80
40289;DHT22;28991;52.028;5.526;2023-11-19T04:39:19;17.50;56.80
40289;DHT22;28991;52.028;5.526;2023-11-19T04:41:51;17.50;56.80
40289;DHT22;28991;52.028;5.526;2023-11-19T04:44:20;17.50;56.80
40289;DHT22;28991;52.028;5.526;2023-11-19T04:46:45;17.40;56.80
40289;DHT22;28991;52.028;5.526;2023-11-19T04:49:12;17.50;56.80
40289;DHT22;28991;52.028;5.526;2023-11-19T04:51:40;18.60;57.40
40289;DHT22;28991;52.028;5.526;2023-11-19T04:54:06;18.40;57.30
40289;DHT22;28991;52.028;5.526;2023-11-19T04:56:33;17.10;56.60
40289;DHT22;28991;52.028;5.526;2023-11-19T04:58:58;17.40;56.80
40289;DHT22;28991;52.028;5.526;2023-11-19T05:01:24;17.50;56.90
40289;DHT22;28991;52.028;5.526;2023-11-19T05:03:49;17.50;56.90
40289;DHT22;28991;52.028;5.526;2023-11-19T05:06:16;17.30;56.80
40289;DHT22;28991;52.028;5.526;2023-11-19T05:08:41;17.40;56.90
40289;DHT22;28991;52.028;5.526;2023-11-19T05:11:07;17.50;56.90
40289;DHT22;28991;52.028;5.526;2023-11-19T05:13:33;17.50;57.00
40289;DHT22;28991;52.028;5.526;2023-11-19T05:15:58;17.40;56.90
40289;DHT22;28991;52.028;5.526;2023-11-19T05:18:24;17.40;56.90
40289;DHT22;28991;52.028;5.526;2023-11-19T05:20:49;17.40;56.90
40289;DHT22;28991;52.028;5.526;2023-11-19T05:23:15;17.50;57.00
40289;DHT22;28991;52.028;5.526;2023-11-19T05:25:40;17.50;57.00
40289;DHT22;28991;52.028;5.526;2023-11-19T05:28:06;17.40;57.00
40289;DHT22;28991;52.028;5.526;2023-11-19T05:30:31;17.70;57.20
40289;DHT22;28991;52.028;5.526;2023-11-19T05:32:57;17.50;57.00
40289;DHT22;28991;52.028;5.526;2023-11-19T05:35:22;17.50;57.10
40289;DHT22;28991;52.028;5.526;2023-11-19T05:37:48;17.50;57.10
40289;DHT22;28991;52.028;5.526;2023-11-19T05:40:15;17.50;57.10
40289;DHT22;28991;52.028;5.526;2023-11-19T05:42:41;17.40;57.00
40289;DHT22;28991;52.028;5.526;2023-11-19T05:45:07;17.50;57.10
40289;DHT22;28991;52.028;5.526;2023-11-19T05:47:33;17.50;57.10
40289;DHT22;28991;52.028;5.526;2023-11-19T05:49:59;17.50;57.10
40289;DHT22;28991;52.028;5.526;2023-11-19T05:52:24;17.40;57.10
40289;DHT22;28991;52.028;5.526;2023-11-19T05:54:50;17.50;57.10
40289;DHT22;28991;52.028;5.526;2023-11-19T05:57:17;17.50;57.10
40289;DHT22;28991;52.028;5.526;2023-11-19T05:59:49;17.50;57.20
40289;DHT22;28991;52.028;5.526;2023-11-19T06:02:15;17.70;57.30
40289;DHT22;28991;52.028;5.526;2023-11-19T06:04:40;17.50;57.20
40289;DHT22;28991;52.028;5.526;2023-11-19T06:07:09;17.50;57.20
40289;DHT22;28991;52.028;5.526;2023-11-19T06:09:35;17.50;57.30
40289;DHT22;28991;52.028;5.526;2023-11-19T06:12:00;18.10;57.60
40289;DHT22;28991;52.028;5.526;2023-11-19T06:14:27;17.40;57.20
40289;DHT22;28991;52.028;5.526;2023-11-19T06:16:53;17.40;57.20
40289;DHT22;28991;52.028;5.526;2023-11-19T06:19:18;17.60;57.30
40289;DHT22;28991;52.028;5.526;2023-11-19T06:21:44;17.70;57.30
40289;DHT22;28991;52.028;5.526;2023-11-19T06:24:10;17.40;57.20
40289;DHT22;28991;52.028;5.526;2023-11-19T06:26:35;18.00;57.50
40289;DHT22;28991;52.028;5.526;2023-11-19T06:29:01;17.50;57.30
40289;DHT22;28991;52.028;5.526;2023-11-19T06:31:26;17.40;57.20
40289;DHT22;28991;52.028;5.526;2023-11-19T06:33:52;17.40;57.30
40289;DHT22;28991;52.028;5.526;2023-11-19T06:36:17;17.50;57.30
40289;DHT22;28991;52.028;5.526;2023-11-19T06:38:43;17.30;57.20
40289;DHT22;28991;52.028;5.526;2023-11-19T06:41:09;17.40;57.30
40289;DHT22;28991;52.028;5.526;2023-11-19T06:43:36;17.50;57.40
40289;DHT22;28991;52.028;5.526;2023-11-19T06:46:02;17.40;57.30
40289;DHT22;28991;52.028;5.526;2023-11-19T06:48:27;17.20;57.20
40289;DHT22;28991;52.028;5.526;2023-11-19T06:50:53;17.50;57.30
40289;DHT22;28991;52.028;5.526;2023-11-19T06:53:19;17.40;57.30
40289;DHT22;28991;52.028;5.526;2023-11-19T06:55:44;18.50;57.90
40289;DHT22;28991;52.028;5.526;2023-11-19T06:58:10;17.40;57.40
40289;DHT22;28991;52.028;5.526;2023-11-19T07:00:35;17.40;57.40
40289;DHT22;28991;52.028;5.526;2023-11-19T07:03:01;17.30;57.30
40289;DHT22;28991;52.028;5.526;2023-11-19T07:05:27;17.50;57.40
40289;DHT22;28991;52.028;5.526;2023-11-19T07:07:53;17.40;57.40
40289;DHT22;28991;52.028;5.526;2023-11-19T07:10:20;17.40;57.40
40289;DHT22;28991;52.028;5.526;2023-11-19T07:12:45;18.60;58.00
40289;DHT22;28991;52.028;5.526;2023-11-19T07:15:11;18.80;58.10
40289;DHT22;28991;52.028;5.526;2023-11-19T07:17:38;17.60;57.50
40289;DHT22;28991;52.028;5.526;2023-11-19T07:20:05;17.30;57.30
40289;DHT22;28991;52.028;5.526;2023-11-19T07:22:31;17.50;57.40
40289;DHT22;28991;52.028;5.526;2023-11-19T07:24:57;17.50;57.40
40289;DHT22;28991;52.028;5.526;2023-11-19T07:27:23;17.40;57.40
40289;DHT22;28991;52.028;5.526;2023-11-19T07:29:49;17.50;57.50
40289;DHT22;28991;52.028;5.526;2023-11-19T07:32:15;17.50;57.50
40289;DHT22;28991;52.028;5.526;2023-11-19T07:34:40;17.40;57.40
40289;DHT22;28991;52.028;5.526;2023-11-19T07:37:06;17.40;57.40
40289;DHT22;28991;52.028;5.526;2023-11-19T07:39:32;17.40;58.00
40289;DHT22;28991;52.028;5.526;2023-11-19T07:41:58;17.60;58.90
40289;DHT22;28991;52.028;5.526;2023-11-19T07:44:23;17.60;59.20
40289;DHT22;28991;52.028;5.526;2023-11-19T07:46:50;17.70;59.30
40289;DHT22;28991;52.028;5.526;2023-11-19T07:49:15;17.70;59.00
40289;DHT22;28991;52.028;5.526;2023-11-19T07:51:41;17.80;59.60
40289;DHT22;28991;52.028;5.526;2023-11-19T07:54:07;17.80;59.00
40289;DHT22;28991;52.028;5.526;2023-11-19T07:56:33;18.10;59.00
40289;DHT22;28991;52.028;5.526;2023-11-19T07:59:04;17.80;58.70
40289;DHT22;28991;52.028;5.526;2023-11-19T08:01:30;18.00;58.70
40289;DHT22;28991;52.028;5.526;2023-11-19T08:03:56;18.00;58.70
40289;DHT22;28991;52.028;5.526;2023-11-19T08:06:21;18.00;58.60
40289;DHT22;28991;52.028;5.526;2023-11-19T08:08:47;18.00;58.60
40289;DHT22;28991;52.028;5.526;2023-11-19T08:11:13;18.10;58.70
40289;DHT22;28991;52.028;5.526;2023-11-19T08:13:39;18.00;58.60
40289;DHT22;28991;52.028;5.526;2023-11-19T08:16:05;18.10;58.70
40289;DHT22;28991;52.028;5.526;2023-11-19T08:18:31;18.20;58.70
40289;DHT22;28991;52.028;5.526;2023-11-19T08:20:56;18.40;58.80
40289;DHT22;28991;52.028;5.526;2023-11-19T08:23:23;18.20;58.60
40289;DHT22;28991;52.028;5.526;2023-11-19T08:25:51;18.10;58.70
40289;DHT22;28991;52.028;5.526;2023-11-19T08:28:17;18.20;58.70
40289;DHT22;28991;52.028;5.526;2023-11-19T08:30:43;18.10;58.80
40289;DHT22;28991;52.028;5.526;2023-11-19T08:33:09;18.20;58.80
40289;DHT22;28991;52.028;5.526;2023-11-19T08:35:35;18.20;58.70
40289;DHT22;28991;52.028;5.526;2023-11-19T08:38:00;18.20;58.50
40289;DHT22;28991;52.028;5.526;2023-11-19T08:40:27;18.20;58.60
40289;DHT22;28991;52.028;5.526;2023-11-19T08:42:52;18.20;58.70
40289;DHT22;28991;52.028;5.526;2023-11-19T08:45:18;18.40;58.70
40289;DHT22;28991;52.028;5.526;2023-11-19T08:47:44;18.20;58.50
40289;DHT22;28991;52.028;5.526;2023-11-19T08:50:11;18.30;58.50
40289;DHT22;28991;52.028;5.526;2023-11-19T08:52:37;18.30;58.50
40289;DHT22;28991;52.028;5.526;2023-11-19T08:55:03;18.20;58.60
40289;DHT22;28991;52.028;5.526;2023-11-19T08:57:30;18.20;58.50
40289;DHT22;28991;52.028;5.526;2023-11-19T08:59:56;18.30;58.50
40289;DHT22;28991;52.028;5.526;2023-11-19T09:02:21;18.40;58.50
40289;DHT22;28991;52.028;5.526;2023-11-19T09:04:47;18.00;58.20
40289;DHT22;28991;52.028;5.526;2023-11-19T09:07:13;18.30;58.30
40289;DHT22;28991;52.028;5.526;2023-11-19T09:09:38;18.40;58.20
40289;DHT22;28991;52.028;5.526;2023-11-19T09:12:04;18.50;58.20
40289;DHT22;28991;52.028;5.526;2023-11-19T09:14:30;18.40;58.10
40289;DHT22;28991;52.028;5.526;2023-11-19T09:16:56;18.30;58.00
40289;DHT22;28991;52.028;5.526;2023-11-19T09:19:22;18.40;58.20
40289;DHT22;28991;52.028;5.526;2023-11-19T09:21:47;18.40;58.30
40289;DHT22;28991;52.028;5.526;2023-11-19T09:24:14;18.30;58.30
40289;DHT22;28991;52.028;5.526;2023-11-19T09:26:40;18.30;58.40
40289;DHT22;28991;52.028;5.526;2023-11-19T09:29:07;18.70;58.60
40289;DHT22;28991;52.028;5.526;2023-11-19T09:31:33;18.40;58.50
40289;DHT22;28991;52.028;5.526;2023-11-19T09:34:00;18.40;58.40
40289;DHT22;28991;52.028;5.526;2023-11-19T09:36:25;18.40;58.20
40289;DHT22;28991;52.028;5.526;2023-11-19T09:38:51;18.30;58.30
40289;DHT22;28991;52.028;5.526;2023-11-19T09:41:17;18.40;58.50
40289;DHT22;28991;52.028;5.526;2023-11-19T09:43:45;18.30;58.80
40289;DHT22;28991;52.028;5.526;2023-11-19T09:46:13;18.40;59.10
40289;DHT22;28991;52.028;5.526;2023-11-19T09:48:40;18.30;59.10
40289;DHT22;28991;52.028;5.526;2023-11-19T09:51:08;18.20;59.10
40289;DHT22;28991;52.028;5.526;2023-11-19T09:53:35;18.20;59.20
40289;DHT22;28991;52.028;5.526;2023-11-19T09:56:05;18.20;59.00
40289;DHT22;28991;52.028;5.526;2023-11-19T09:58:31;18.30;58.90
40289;DHT22;28991;52.028;5.526;2023-11-19T10:00:57;18.20;59.00
40289;DHT22;28991;52.028;5.526;2023-11-19T10:03:33;18.30;59.20
40289;DHT22;28991;52.028;5.526;2023-11-19T10:06:01;18.30;59.10
40289;DHT22;28991;52.028;5.526;2023-11-19T10:08:26;18.10;59.00
40289;DHT22;28991;52.028;5.526;2023-11-19T10:10:52;18.30;59.20
40289;DHT22;28991;52.028;5.526;2023-11-19T10:13:17;18.30;59.40
40289;DHT22;28991;52.028;5.526;2023-11-19T10:15:44;18.30;59.30
40289;DHT22;28991;52.028;5.526;2023-11-19T10:18:09;18.30;59.40
40289;DHT22;28991;52.028;5.526;2023-11-19T10:20:41;18.70;59.80
40289;DHT22;28991;52.028;5.526;2023-11-19T10:23:07;18.20;59.50
40289;DHT22;28991;52.028;5.526;2023-11-19T10:25:33;18.20;59.60
40289;DHT22;28991;52.028;5.526;2023-11-19T10:27:59;18.30;59.40
40289;DHT22;28991;52.028;5.526;2023-11-19T10:30:29;18.40;59.10
40289;DHT22;28991;52.028;5.526;2023-11-19T10:33:24;18.50;59.00
40289;DHT22;28991;52.028;5.526;2023-11-19T10:35:56;18.50;58.50
40289;DHT22;28991;52.028;5.526;2023-11-19T10:38:22;18.60;58.40
40289;DHT22;28991;52.028;5.526;2023-11-19T10:40:49;18.80;58.30
40289;DHT22;28991;52.028;5.526;2023-11-19T10:43:19;18.80;58.10
40289;DHT22;28991;52.028;5.526;2023-11-19T10:45:44;18.90;58.00
40289;DHT22;28991;52.028;5.526;2023-11-19T10:48:10;18.90;57.90
40289;DHT22;28991;52.028;5.526;2023-11-19T10:50:39;19.00;57.70
40289;DHT22;28991;52.028;5.526;2023-11-19T10:53:05;19.40;57.80
40289;DHT22;28991;52.028;5.526;2023-11-19T10:55:34;19.10;57.50
40289;DHT22;28991;52.028;5.526;2023-11-19T10:58:04;18.80;57.40
40289;DHT22;28991;52.028;5.526;2023-11-19T11:03:08;19.00;57.70
40289;DHT22;28991;52.028;5.526;2023-11-19T11:05:37;19.00;57.80
40289;DHT22;28991;52.028;5.526;2023-11-19T11:08:06;18.90;57.80
40289;DHT22;28991;52.028;5.526;2023-11-19T11:10:32;19.00;57.90
40289;DHT22;28991;52.028;5.526;2023-11-19T11:13:03;18.90;57.90
40289;DHT22;28991;52.028;5.526;2023-11-19T11:15:30;18.90;58.00
40289;DHT22;28991;52.028;5.526;2023-11-19T11:17:59;19.10;58.10
40289;DHT22;28991;52.028;5.526;2023-11-19T11:20:30;18.90;58.10
40289;DHT22;28991;52.028;5.526;2023-11-19T11:25:51;18.80;58.20
40289;DHT22;28991;52.028;5.526;2023-11-19T11:34:19;18.60;58.70
40289;DHT22;28991;52.028;5.526;2023-11-19T11:37:09;18.70;58.80
40289;DHT22;28991;52.028;5.526;2023-11-19T11:39:36;18.60;58.90
40289;DHT22;28991;52.028;5.526;2023-11-19T11:45:03;18.50;59.10
40289;DHT22;28991;52.028;5.526;2023-11-19T11:50:15;18.50;59.30
40289;DHT22;28991;52.028;5.526;2023-11-19T11:55:28;18.50;60.00
40289;DHT22;28991;52.028;5.526;2023-11-19T11:57:57;18.40;59.30
40289;DHT22;28991;52.028;5.526;2023-11-19T12:00:27;18.40;59.50
40289;DHT22;28991;52.028;5.526;2023-11-19T12:03:04;18.30;59.50
40289;DHT22;28991;52.028;5.526;2023-11-19T12:05:30;18.40;59.40
40289;DHT22;28991;52.028;5.526;2023-11-19T12:08:03;18.40;59.30
40289;DHT22;28991;52.028;5.526;2023-11-19T12:10:30;18.30;59.30
40289;DHT22;28991;52.028;5.526;2023-11-19T12:13:01;18.40;59.30
40289;DHT22;28991;52.028;5.526;2023-11-19T12:15:27;18.40;59.40
40289;DHT22;28991;52.028;5.526;2023-11-19T12:17:54;18.30;59.30
40289;DHT22;28991;52.028;5.526;2023-11-19T12:20:24;18.30;59.30
40289;DHT22;28991;52.028;5.526;2023-11-19T12:22:51;18.30;59.30
40289;DHT22;28991;52.028;5.526;2023-11-19T12:25:17;18.20;59.20
40289;DHT22;28991;52.028;5.526;2023-11-19T12:27:47;18.30;59.30
40289;DHT22;28991;52.028;5.526;2023-11-19T12:30:14;18.20;59.20
40289;DHT22;28991;52.028;5.526;2023-11-19T12:32:43;18.20;59.20
40289;DHT22;28991;52.028;5.526;2023-11-19T12:35:09;18.20;59.30
40289;DHT22;28991;52.028;5.526;2023-11-19T12:40:23;18.20;59.20
40289;DHT22;28991;52.028;5.526;2023-11-19T12:42:50;18.20;59.30
40289;DHT22;28991;52.028;5.526;2023-11-19T12:45:16;18.20;59.30
40289;DHT22;28991;52.028;5.526;2023-11-19T12:47:43;18.90;59.70
40289;DHT22;28991;52.028;5.526;2023-11-19T12:50:09;18.20;59.30
40289;DHT22;28991;52.028;5.526;2023-11-19T12:52:36;18.20;59.30
40289;DHT22;28991;52.028;5.526;2023-11-19T12:55:03;18.30;59.30
40289;DHT22;28991;52.028;5.526;2023-11-19T12:57:42;18.10;59.20
40289;DHT22;28991;52.028;5.526;2023-11-19T13:00:18;18.20;59.30
40289;DHT22;28991;52.028;5.526;2023-11-19T13:02:47;18.20;59.30
40289;DHT22;28991;52.028;5.526;2023-11-19T13:05:26;18.20;59.20
40289;DHT22;28991;52.028;5.526;2023-11-19T13:08:03;18.00;59.20
40289;DHT22;28991;52.028;5.526;2023-11-19T13:10:30;18.10;59.20
40289;DHT22;28991;52.028;5.526;2023-11-19T13:13:04;18.30;59.30
40289;DHT22;28991;52.028;5.526;2023-11-19T13:15:30;18.10;59.20
40289;DHT22;28991;52.028;5.526;2023-11-19T13:17:56;18.10;59.20
40289;DHT22;28991;52.028;5.526;2023-11-19T13:20:21;18.00;59.20
40289;DHT22;28991;52.028;5.526;2023-11-19T13:22:58;18.00;59.30
40289;DHT22;28991;52.028;5.526;2023-11-19T13:25:24;18.00;59.30
40289;DHT22;28991;52.028;5.526;2023-11-19T13:27:49;17.90;59.30
40289;DHT22;28991;52.028;5.526;2023-11-19T13:30:15;18.10;59.40
40289;DHT22;28991;52.028;5.526;2023-11-19T13:32:41;18.00;59.90
40289;DHT22;28991;52.028;5.526;2023-11-19T13:35:07;18.00;59.30
40289;DHT22;28991;52.028;5.526;2023-11-19T13:37:34;18.00;59.30
40289;DHT22;28991;52.028;5.526;2023-11-19T13:40:00;18.10;59.40
40289;DHT22;28991;52.028;5.526;2023-11-19T13:42:25;18.10;59.50
40289;DHT22;28991;52.028;5.526;2023-11-19T13:44:51;18.50;59.60
40289;DHT22;28991;52.028;5.526;2023-11-19T13:47:17;18.30;59.50
40289;DHT22;28991;52.028;5.526;2023-11-19T13:49:44;17.90;59.30
40289;DHT22;28991;52.028;5.526;2023-11-19T13:52:10;17.90;59.40
40289;DHT22;28991;52.028;5.526;2023-11-19T13:54:37;17.90;59.40
40289;DHT22;28991;52.028;5.526;2023-11-19T13:57:03;18.00;59.50
40289;DHT22;28991;52.028;5.526;2023-11-19T13:59:30;18.00;59.40
40289;DHT22;28991;52.028;5.526;2023-11-19T14:01:57;17.90;59.40
40289;DHT22;28991;52.028;5.526;2023-11-19T14:04:23;17.90;59.40
40289;DHT22;28991;52.028;5.526;2023-11-19T14:06:48;18.00;59.40
40289;DHT22;28991;52.028;5.526;2023-11-19T14:09:14;17.90;59.40
40289;DHT22;28991;52.028;5.526;2023-11-19T14:11:40;17.80;59.30
40289;DHT22;28991;52.028;5.526;2023-11-19T14:14:06;17.90;59.40
40289;DHT22;28991;52.028;5.526;2023-11-19T14:16:31;17.90;59.30
40289;DHT22;28991;52.028;5.526;2023-11-19T14:18:58;17.90;59.90
40289;DHT22;28991;52.028;5.526;2023-11-19T14:21:23;17.90;59.30
40289;DHT22;28991;52.028;5.526;2023-11-19T14:23:50;17.90;59.30
40289;DHT22;28991;52.028;5.526;2023-11-19T14:26:16;18.40;59.60
40289;DHT22;28991;52.028;5.526;2023-11-19T14:28:42;17.90;59.30
40289;DHT22;28991;52.028;5.526;2023-11-19T14:31:07;17.90;59.30
40289;DHT22;28991;52.028;5.526;2023-11-19T14:33:33;17.90;59.30
40289;DHT22;28991;52.028;5.526;2023-11-19T14:36:00;18.00;59.40
40289;DHT22;28991;52.028;5.526;2023-11-19T14:38:26;17.90;59.30
40289;DHT22;28991;52.028;5.526;2023-11-19T14:40:51;17.70;59.30
40289;DHT22;28991;52.028;5.526;2023-11-19T14:43:17;17.90;59.50
40289;DHT22;28991;52.028;5.526;2023-11-19T14:45:42;17.80;59.30
40289;DHT22;28991;52.028;5.526;2023-11-19T14:48:08;18.40;60.20
40289;DHT22;28991;52.028;5.526;2023-11-19T14:50:35;17.90;59.40
40289;DHT22;28991;52.028;5.526;2023-11-19T14:53:01;17.90;59.40
40289;DHT22;28991;52.028;5.526;2023-11-19T14:55:27;17.90;59.50
40289;DHT22;28991;52.028;5.526;2023-11-19T14:57:53;17.80;59.50
40289;DHT22;28991;52.028;5.526;2023-11-19T15:00:19;17.70;59.40
40289;DHT22;28991;52.028;5.526;2023-11-19T15:02:44;17.80;59.50
40289;DHT22;28991;52.028;5.526;2023-11-19T15:05:10;17.90;59.50
40289;DHT22;28991;52.028;5.526;2023-11-19T15:07:39;17.80;59.40
40289;DHT22;28991;52.028;5.526;2023-11-19T15:10:08;17.80;59.40
40289;DHT22;28991;52.028;5.526;2023-11-19T15:12:37;17.80;59.50
40289;DHT22;28991;52.028;5.526;2023-11-19T15:15:08;17.90;59.50
40289;DHT22;28991;52.028;5.526;2023-11-19T15:17:39;17.80;59.50
40289;DHT22;28991;52.028;5.526;2023-11-19T15:20:05;17.80;59.70
40289;DHT22;28991;52.028;5.526;2023-11-19T15:22:31;17.80;59.50
40289;DHT22;28991;52.028;5.526;2023-11-19T15:24:57;17.90;59.60
40289;DHT22;28991;52.028;5.526;2023-11-19T15:27:22;17.70;59.50
40289;DHT22;28991;52.028;5.526;2023-11-19T15:29:48;17.70;59.50
40289;DHT22;28991;52.028;5.526;2023-11-19T15:32:14;17.70;59.50
40289;DHT22;28991;52.028;5.526;2023-11-19T15:34:39;17.80;59.60
40289;DHT22;28991;52.028;5.526;2023-11-19T15:37:07;17.70;59.60
40289;DHT22;28991;52.028;5.526;2023-11-19T15:39:32;17.70;59.60
40289;DHT22;28991;52.028;5.526;2023-11-19T15:41:59;17.70;59.50
40289;DHT22;28991;52.028;5.526;2023-11-19T15:44:25;17.70;59.70
40289;DHT22;28991;52.028;5.526;2023-11-19T15:46:50;17.50;59.50
40289;DHT22;28991;52.028;5.526;2023-11-19T15:49:16;18.00;59.80
40289;DHT22;28991;52.028;5.526;2023-11-19T15:51:42;17.60;59.60